Time;durP1;ratioP1;P1;durP2;ratioP2;P2;SDS_P1;SDS_P2;PMS_P1;PMS_P2;Temp;Humidity;BMP_temperature;BMP_pressure;BME280_temperature;BME280_humidity;BME280_pressure;Samples;Min_cycle;Max_cycle;Signal;HPM_P1;HPM_P2
2022/11/04 00:00:30;;;;;;;;;;;;;;;1.33;100.00;97494.63;107655;1269;69226;-68
2022/11/04 00:03:00;;;;;;;;;;;;;;;1.34;100.00;97496.15;107667;1265;59735;-68
2022/11/04 00:05:31;;;;;;;;;;;;;;;1.28;100.00;97492.59;107656;1267;59720;-68
2022/11/04 00:13:46;;;;;;;;;;;;;;;1.10;100.00;97493.38;107615;1266;68431;-68
2022/11/04 00:19:04;;;;;;;;;;;;;;;0.99;100.00;97480.17;107624;1266;59724;-68
2022/11/04 00:30:04;;;;;;;;;;;;;;;0.99;100.00;97464.05;107615;1269;59725;-68
2022/11/04 00:35:22;;;;;;;;;;;;;;;1.15;100.00;97458.52;107645;1265;71401;-68
2022/11/04 00:37:52;;;;;;;;;;;;;;;1.12;100.00;97459.50;107660;1267;68311;-68
2022/11/04 00:40:21;;;;;;;;;;;;;;;1.06;100.00;97458.16;107611;1266;69185;-68
2022/11/04 00:42:51;;;;;;;;;;;;;;;1.01;100.00;97456.42;107632;1267;59756;-69
2022/11/04 00:45:20;;;;;;;;;;;;;;;0.98;100.00;97450.17;107636;1270;59695;-69
2022/11/04 00:47:50;;;;;;;;;;;;;;;0.96;100.00;97447.64;107663;1266;70685;-69
2022/11/04 00:50:20;;;;;;;;;;;;;;;0.95;100.00;97442.39;107638;1270;69112;-69
2022/11/04 00:52:51;;;;;;;;;;;;;;;0.94;100.00;97439.66;107591;1265;68486;-67
2022/11/04 00:55:20;;;;;;;;;;;;;;;0.88;100.00;97437.98;107647;1269;59827;-68
2022/11/04 00:57:50;;;;;;;;;;;;;;;0.81;100.00;97434.81;107658;1270;59737;-68
2022/11/04 01:00:21;;;;;;;;;;;;;;;0.74;100.00;97437.77;107658;1269;71451;-67
2022/11/04 01:02:52;;;;;;;;;;;;;;;0.69;100.00;97434.84;107663;1270;69187;-68
2022/11/04 01:05:22;;;;;;;;;;;;;;;0.65;100.00;97434.81;107645;1269;69113;-68
2022/11/04 01:07:52;;;;;;;;;;;;;;;0.61;100.00;97432.02;107631;1267;59790;-68
2022/11/04 01:10:21;;;;;;;;;;;;;;;0.61;100.00;97433.08;107672;1270;59696;-68
2022/11/04 01:12:52;;;;;;;;;;;;;;;0.59;100.00;97435.02;107675;1264;70587;-69
2022/11/04 01:15:23;;;;;;;;;;;;;;;0.57;100.00;97430.77;107659;1267;69231;-69
2022/11/04 01:17:53;;;;;;;;;;;;;;;0.56;100.00;97427.55;107659;1267;68502;-70
2022/11/04 01:20:22;;;;;;;;;;;;;;;0.58;100.00;97421.85;107613;1267;59697;-70
2022/11/04 01:22:52;;;;;;;;;;;;;;;0.60;100.00;97415.59;107592;1269;59724;-67
2022/11/04 01:25:23;;;;;;;;;;;;;;;0.60;100.00;97414.20;107628;1269;71437;-67
2022/11/04 01:27:54;;;;;;;;;;;;;;;0.56;100.00;97414.50;107625;1267;69073;-68
2022/11/04 01:30:23;;;;;;;;;;;;;;;0.47;100.00;97415.31;107664;1270;69162;-67
2022/11/04 01:32:54;;;;;;;;;;;;;;;0.34;100.00;97408.39;107640;1270;59783;-67
2022/11/04 01:35:25;;;;;;;;;;;;;;;0.24;100.00;97404.42;107625;1266;59729;-68
2022/11/04 01:37:54;;;;;;;;;;;;;;;0.14;100.00;97402.31;107678;1271;71458;-67
2022/11/04 01:40:24;;;;;;;;;;;;;;;0.06;100.00;97394.51;107657;1268;69201;-67
2022/11/04 01:42:54;;;;;;;;;;;;;;;-0.01;100.00;97388.04;107671;1267;68489;-68
2022/11/04 01:45:25;;;;;;;;;;;;;;;-0.06;100.00;97382.55;107659;1270;59725;-68
2022/11/04 01:48:05;;;;;;;;;;;;;;;-0.09;100.00;97379.39;107673;1265;59729;-68
2022/11/04 01:50:35;;;;;;;;;;;;;;;-0.11;100.00;97371.40;107650;1265;71226;-67
2022/11/04 01:53:08;;;;;;;;;;;;;;;-0.13;100.00;97375.08;107673;1265;68826;-68
2022/11/04 01:55:42;;;;;;;;;;;;;;;-0.16;100.00;97369.14;107650;1270;68307;-68
2022/11/04 01:58:14;;;;;;;;;;;;;;;-0.17;100.00;97363.52;107673;1269;59751;-68
2022/11/04 02:00:44;;;;;;;;;;;;;;;-0.15;100.00;97358.33;107675;1269;59695;-68
2022/11/04 02:03:16;;;;;;;;;;;;;;;-0.12;100.00;97357.73;107674;1267;70577;-68
2022/11/04 02:05:46;;;;;;;;;;;;;;;-0.10;100.00;97354.73;107731;1269;69269;-68
2022/11/04 02:08:17;;;;;;;;;;;;;;;-0.08;100.00;97354.17;107656;1266;68604;-68
2022/11/04 02:10:54;;;;;;;;;;;;;;;-0.05;100.00;97357.50;107634;1269;59740;-68
2022/11/04 02:13:25;;;;;;;;;;;;;;;-0.00;100.00;97358.73;107665;1266;59684;-67
2022/11/04 02:15:58;;;;;;;;;;;;;;;-0.03;100.00;97356.06;107643;1270;70515;-68
2022/11/04 02:18:59;;;;;;;;;;;;;;;-0.04;100.00;97356.29;107665;1270;68277;-68
2022/11/04 02:21:35;;;;;;;;;;;;;;;-0.09;100.00;97354.55;107572;1267;68580;-68
2022/11/04 02:24:25;;;;;;;;;;;;;;;-0.15;100.00;97358.68;107631;1269;59708;-68
2022/11/04 02:27:06;;;;;;;;;;;;;;;-0.24;100.00;97361.70;107668;1269;59680;-67
2022/11/04 02:29:45;;;;;;;;;;;;;;;-0.35;100.00;97359.98;107658;1265;71371;-67
2022/11/04 02:32:23;;;;;;;;;;;;;;;-0.45;100.00;97357.03;107662;1267;69348;-67
2022/11/04 02:35:22;;;;;;;;;;;;;;;-0.49;100.00;97350.64;107657;1265;68445;-70
2022/11/04 02:37:57;;;;;;;;;;;;;;;-0.50;100.00;97347.41;107444;1265;59722;-69
2022/11/04 02:40:35;;;;;;;;;;;;;;;-0.50;100.00;97344.14;107627;1269;59686;-69
2022/11/04 02:43:21;;;;;;;;;;;;;;;-0.46;100.00;97347.11;107715;1268;70823;-68
2022/11/04 02:45:56;;;;;;;;;;;;;;;-0.46;100.00;97345.58;107633;1269;69198;-68
2022/11/04 02:48:59;;;;;;;;;;;;;;;-0.44;100.00;97346.73;107655;1267;69328;-69
2022/11/04 02:51:47;;;;;;;;;;;;;;;-0.42;100.00;97341.52;107534;1271;59729;-69
2022/11/04 02:54:17;;;;;;;;;;;;;;;-0.42;100.00;97341.70;107650;1267;60157;-69
2022/11/04 02:56:49;;;;;;;;;;;;;;;-0.43;100.00;97338.63;107640;1269;70435;-68
2022/11/04 02:59:39;;;;;;;;;;;;;;;-0.45;100.00;97330.13;107670;1267;69875;-68
2022/11/04 03:02:12;;;;;;;;;;;;;;;-0.46;100.00;97324.70;107615;1269;68495;-69
2022/11/04 03:04:46;;;;;;;;;;;;;;;-0.46;100.00;97325.89;107659;1265;59734;-69
2022/11/04 03:07:19;;;;;;;;;;;;;;;-0.47;100.00;97323.84;107697;1267;59708;-68
2022/11/04 03:09:54;;;;;;;;;;;;;;;-0.48;100.00;97325.09;107641;1267;70474;-69
2022/11/04 03:12:27;;;;;;;;;;;;;;;-0.44;100.00;97321.73;107647;1267;68617;-69
2022/11/04 03:14:59;;;;;;;;;;;;;;;-0.39;100.00;97322.25;107614;1270;68398;-69
2022/11/04 03:17:35;;;;;;;;;;;;;;;-0.40;100.00;97321.41;107662;1271;59770;-69
2022/11/04 03:20:06;;;;;;;;;;;;;;;-0.37;100.00;97329.20;107640;1270;59762;-70
2022/11/04 03:22:36;;;;;;;;;;;;;;;-0.37;100.00;97325.60;107618;1267;70602;-69
2022/11/04 03:25:07;;;;;;;;;;;;;;;-0.43;100.00;97324.09;107637;1268;68390;-68
2022/11/04 03:27:59;;;;;;;;;;;;;;;-0.48;100.00;97327.33;107678;1270;68497;-68
2022/11/04 03:30:50;;;;;;;;;;;;;;;-0.51;100.00;97324.48;107600;1270;59747;-69
2022/11/04 03:33:20;;;;;;;;;;;;;;;-0.50;100.00;97324.66;107654;1265;59661;-69
2022/11/04 03:35:50;;;;;;;;;;;;;;;-0.49;100.00;97323.23;107660;1267;71380;-68
2022/11/04 03:38:22;;;;;;;;;;;;;;;-0.48;100.00;97319.63;107652;1270;69253;-68
2022/11/04 03:40:51;;;;;;;;;;;;;;;-0.48;100.00;97312.45;107584;1268;68363;-68
2022/11/04 03:43:26;;;;;;;;;;;;;;;-0.53;100.00;97312.04;107626;1267;59834;-68
2022/11/04 03:45:56;;;;;;;;;;;;;;;-0.55;100.00;97314.50;107648;1267;60130;-69
2022/11/04 03:48:26;;;;;;;;;;;;;;;-0.61;100.00;97316.40;107652;1268;70327;-68
2022/11/04 03:50:55;;;;;;;;;;;;;;;-0.66;100.00;97319.95;107649;1265;68356;-68
2022/11/04 03:53:27;;;;;;;;;;;;;;;-0.71;100.00;97320.27;107618;1271;69139;-69
2022/11/04 03:55:56;;;;;;;;;;;;;;;-0.73;100.00;97322.41;107660;1270;59805;-68
2022/11/04 03:58:33;;;;;;;;;;;;;;;-0.74;100.00;97324.13;107646;1270;59704;-69
2022/11/04 04:01:17;;;;;;;;;;;;;;;-0.74;100.00;97319.86;107653;1267;71511;-69
2022/11/04 04:03:54;;;;;;;;;;;;;;;-0.77;100.00;97320.47;107628;1270;69204;-69
2022/11/04 04:06:33;;;;;;;;;;;;;;;-0.81;100.00;97322.14;107638;1271;69388;-69
2022/11/04 04:09:09;;;;;;;;;;;;;;;-0.84;100.00;97320.85;107646;1271;59730;-68
2022/11/04 04:11:51;;;;;;;;;;;;;;;-0.85;100.00;97321.38;107654;1269;60153;-69
2022/11/04 04:14:38;;;;;;;;;;;;;;;-0.85;100.00;97317.95;107682;1265;71396;-69
2022/11/04 04:17:16;;;;;;;;;;;;;;;-0.85;100.00;97313.34;107647;1267;69240;-68
2022/11/04 04:19:50;;;;;;;;;;;;;;;-0.85;100.00;97307.17;107627;1266;67622;-69
2022/11/04 04:22:22;;;;;;;;;;;;;;;-0.84;100.00;97302.35;107645;1271;59694;-68
2022/11/04 04:27:43;;;;;;;;;;;;;;;-0.85;100.00;97298.80;107630;1271;72135;-68
2022/11/04 04:30:14;;;;;;;;;;;;;;;-0.85;100.00;97292.11;107677;1265;69824;-68
2022/11/04 04:32:44;;;;;;;;;;;;;;;-0.82;100.00;97287.42;107634;1271;69414;-69
2022/11/04 04:46:40;;;;;;;;;;;;;;;-0.69;100.00;97271.98;107609;1262;69287;-69
2022/11/04 04:49:09;;;;;;;;;;;;;;;-0.66;100.00;97266.59;107592;1271;59726;-69
2022/11/04 04:51:42;;;;;;;;;;;;;;;-0.62;100.00;97264.55;107656;1269;59703;-68
2022/11/04 04:54:11;;;;;;;;;;;;;;;-0.56;100.00;97264.71;107649;1270;71339;-69
2022/11/04 04:56:40;;;;;;;;;;;;;;;-0.51;100.00;97265.77;107669;1270;69469;-69
2022/11/04 04:59:09;;;;;;;;;;;;;;;-0.48;100.00;97265.02;107627;1271;69292;-68
2022/11/04 05:01:38;;;;;;;;;;;;;;;-0.48;100.00;97267.41;107637;1270;59732;-69
2022/11/04 05:04:07;;;;;;;;;;;;;;;-0.49;100.00;97268.48;107653;1270;59815;-69
2022/11/04 05:06:36;;;;;;;;;;;;;;;-0.49;100.00;97272.41;107389;1267;71480;-69
2022/11/04 05:09:05;;;;;;;;;;;;;;;-0.51;100.00;97271.40;107617;1265;69077;-68
2022/11/04 05:11:33;;;;;;;;;;;;;;;-0.50;100.00;97273.96;107623;1266;68476;-69
2022/11/04 05:14:02;;;;;;;;;;;;;;;-0.55;100.00;97277.68;107673;1270;59694;-69
2022/11/04 05:16:31;;;;;;;;;;;;;;;-0.58;100.00;97279.52;107643;1270;59806;-69
2022/11/04 05:19:08;;;;;;;;;;;;;;;-0.59;100.00;97277.30;107664;1270;72022;-69
2022/11/04 05:21:36;;;;;;;;;;;;;;;-0.58;100.00;97274.86;107629;1267;69203;-69
2022/11/04 05:24:06;;;;;;;;;;;;;;;-0.55;100.00;97271.54;107647;1265;68342;-69
2022/11/04 05:26:34;;;;;;;;;;;;;;;-0.49;100.00;97273.95;107659;1269;59783;-69
2022/11/04 05:29:03;;;;;;;;;;;;;;;-0.46;100.00;97275.02;107631;1271;59714;-68
2022/11/04 05:31:32;;;;;;;;;;;;;;;-0.41;100.00;97273.86;107660;1268;70777;-69
2022/11/04 05:34:01;;;;;;;;;;;;;;;-0.36;100.00;97276.94;107515;1271;69200;-69
2022/11/04 05:36:31;;;;;;;;;;;;;;;-0.31;100.00;97270.11;107636;1266;69905;-68
2022/11/04 05:39:01;;;;;;;;;;;;;;;-0.24;100.00;97272.78;107473;1270;59767;-70
2022/11/04 05:41:30;;;;;;;;;;;;;;;-0.15;100.00;97272.34;107716;1268;59697;-68
2022/11/04 05:44:00;;;;;;;;;;;;;;;-0.05;100.00;97270.64;107456;1271;70543;-68
2022/11/04 05:46:29;;;;;;;;;;;;;;;0.05;100.00;97272.23;107666;1267;69119;-68
2022/11/04 05:48:59;;;;;;;;;;;;;;;0.12;100.00;97270.06;107657;1265;69277;-68
2022/11/04 05:51:27;;;;;;;;;;;;;;;0.22;100.00;97272.14;107628;1265;59787;-73
2022/11/04 05:53:56;;;;;;;;;;;;;;;0.33;100.00;97272.48;107667;1270;59799;-73
2022/11/04 05:56:25;;;;;;;;;;;;;;;0.44;100.00;97269.84;107631;1270;71509;-73
2022/11/04 05:58:54;;;;;;;;;;;;;;;0.58;100.00;97268.18;107687;1263;69285;-73
2022/11/04 06:01:25;;;;;;;;;;;;;;;0.71;100.00;97268.90;107626;1270;69124;-73
2022/11/04 06:03:54;;;;;;;;;;;;;;;0.83;100.00;97269.32;107624;1266;59791;-73
2022/11/04 06:06:23;;;;;;;;;;;;;;;0.91;100.00;97268.87;107609;1271;59760;-73
2022/11/04 06:08:52;;;;;;;;;;;;;;;0.99;100.00;97273.54;107635;1265;71935;-73
2022/11/04 06:11:22;;;;;;;;;;;;;;;1.08;100.00;97269.10;107635;1269;69079;-72
2022/11/04 06:13:50;;;;;;;;;;;;;;;1.16;100.00;97272.23;107650;1270;68472;-73
2022/11/04 06:16:19;;;;;;;;;;;;;;;1.33;100.00;97280.86;107673;1270;59762;-73
2022/11/04 06:18:47;;;;;;;;;;;;;;;1.46;100.00;97279.16;107655;1267;59668;-73
2022/11/04 06:21:17;;;;;;;;;;;;;;;1.60;100.00;97275.17;107659;1270;71370;-73
2022/11/04 06:23:46;;;;;;;;;;;;;;;1.79;100.00;97275.46;107660;1267;69188;-73
2022/11/04 06:26:16;;;;;;;;;;;;;;;2.05;100.00;97267.89;107662;1271;69212;-73
2022/11/04 06:28:45;;;;;;;;;;;;;;;2.38;100.00;97275.45;107641;1268;59790;-73
2022/11/04 06:31:14;;;;;;;;;;;;;;;2.76;100.00;97277.77;107634;1271;59719;-73
2022/11/04 06:33:43;;;;;;;;;;;;;;;2.98;98.09;97278.36;107657;1267;71397;-73
2022/11/04 06:36:13;;;;;;;;;;;;;;;3.19;95.49;97281.02;107663;1268;69681;-73
2022/11/04 06:38:42;;;;;;;;;;;;;;;3.38;93.52;97284.48;107644;1271;69165;-73
2022/11/04 06:41:13;;;;;;;;;;;;;;;3.69;92.49;97283.88;107663;1265;59834;-72
2022/11/04 06:43:41;;;;;;;;;;;;;;;4.06;90.89;97278.80;107661;1266;59698;-72
2022/11/04 06:46:23;;;;;;;;;;;;;;;4.40;89.50;97276.30;107634;1265;71738;-72
2022/11/04 06:48:52;;;;;;;;;;;;;;;4.75;91.13;97274.69;107673;1265;69196;-74
2022/11/04 06:51:21;;;;;;;;;;;;;;;5.08;87.58;97273.31;107649;1267;68307;-72
2022/11/04 06:53:50;;;;;;;;;;;;;;;5.48;86.82;97268.02;107657;1271;60146;-72
2022/11/04 06:56:19;;;;;;;;;;;;;;;5.86;84.01;97264.04;107658;1269;60159;-72
2022/11/04 06:58:48;;;;;;;;;;;;;;;6.32;82.13;97266.48;107671;1270;71550;-72
2022/11/04 07:01:18;;;;;;;;;;;;;;;6.60;80.74;97262.56;107631;1267;69044;-73
2022/11/04 07:03:54;;;;;;;;;;;;;;;6.89;79.38;97261.86;107653;1267;68459;-73
2022/11/04 07:06:24;;;;;;;;;;;;;;;7.24;81.20;97254.36;107625;1269;59832;-73
2022/11/04 07:08:52;;;;;;;;;;;;;;;7.59;78.95;97251.83;107667;1271;59775;-74
2022/11/04 07:11:21;;;;;;;;;;;;;;;8.06;77.12;97249.12;107646;1270;72027;-73
2022/11/04 07:13:50;;;;;;;;;;;;;;;8.57;74.19;97246.17;107660;1269;68396;-73
2022/11/04 07:16:19;;;;;;;;;;;;;;;9.12;79.19;97243.46;107605;1269;67369;-73
2022/11/04 07:18:49;;;;;;;;;;;;;;;9.29;74.06;97239.30;107655;1270;59847;-73
2022/11/04 07:21:17;;;;;;;;;;;;;;;9.39;73.39;97235.27;107652;1267;59684;-72
2022/11/04 07:23:46;;;;;;;;;;;;;;;9.86;78.62;97224.77;107668;1271;70893;-73
2022/11/04 07:26:15;;;;;;;;;;;;;;;10.08;72.53;97227.98;107656;1269;69250;-74
2022/11/04 07:28:44;;;;;;;;;;;;;;;10.26;69.83;97222.90;107296;1267;482361;-73
2022/11/04 07:31:13;;;;;;;;;;;;;;;10.83;73.94;97224.17;107647;1270;59706;-74
2022/11/04 07:33:42;;;;;;;;;;;;;;;11.05;67.73;97211.45;107659;1269;59731;-74
2022/11/04 07:36:12;;;;;;;;;;;;;;;11.36;73.87;97211.28;107652;1267;72114;-74
2022/11/04 07:38:41;;;;;;;;;;;;;;;11.25;66.23;97207.45;107653;1267;69154;-74
2022/11/04 07:41:10;;;;;;;;;;;;;;;11.29;66.41;97208.92;107634;1271;70295;-73
2022/11/04 07:43:39;;;;;;;;;;;;;;;11.06;65.07;97208.45;107663;1269;59758;-74
2022/11/04 07:46:11;;;;;;;;;;;;;;;10.89;66.25;97209.23;107655;1270;59709;-73
2022/11/04 07:48:41;;;;;;;;;;;;;;;10.73;67.86;97206.26;107637;1269;71257;-75
2022/11/04 07:51:11;;;;;;;;;;;;;;;10.33;68.84;97202.02;107420;1267;69268;-75
2022/11/04 07:53:39;;;;;;;;;;;;;;;10.38;69.48;97197.24;107638;1271;68186;-74
2022/11/04 07:56:12;;;;;;;;;;;;;;;10.34;70.77;97193.88;107672;1267;59750;-74
2022/11/04 07:58:41;;;;;;;;;;;;;;;10.19;71.08;97190.49;107659;1268;59771;-74
2022/11/04 08:01:15;;;;;;;;;;;;;;;10.29;70.78;97184.38;107707;1270;72022;-74
2022/11/04 08:03:44;;;;;;;;;;;;;;;10.65;70.71;97183.55;107651;1269;68483;-74
2022/11/04 08:06:15;;;;;;;;;;;;;;;10.81;70.10;97181.83;107606;1267;68625;-74
2022/11/04 08:08:43;;;;;;;;;;;;;;;10.88;69.65;97175.67;107603;1270;59740;-75
2022/11/04 08:11:27;;;;;;;;;;;;;;;11.10;69.40;97169.09;107623;1265;59698;-75
2022/11/04 08:13:56;;;;;;;;;;;;;;;11.54;68.01;97164.02;107621;1267;71407;-75
2022/11/04 08:16:25;;;;;;;;;;;;;;;11.47;67.49;97161.63;107622;1270;69249;-75
2022/11/04 08:19:01;;;;;;;;;;;;;;;11.70;66.55;97162.16;107595;1271;69884;-73
2022/11/04 08:21:31;;;;;;;;;;;;;;;11.74;65.93;97161.01;107653;1269;59711;-74
2022/11/04 08:24:02;;;;;;;;;;;;;;;11.68;66.76;97157.59;107667;1270;59770;-74
2022/11/04 08:26:31;;;;;;;;;;;;;;;11.62;66.85;97158.23;107660;1269;71677;-73
2022/11/04 08:29:01;;;;;;;;;;;;;;;11.88;66.71;97161.77;107667;1270;68189;-73
2022/11/04 08:31:30;;;;;;;;;;;;;;;12.11;66.69;97161.65;107677;1268;68345;-74
2022/11/04 08:34:00;;;;;;;;;;;;;;;12.29;66.73;97161.05;107677;1267;59764;-74
2022/11/04 08:36:31;;;;;;;;;;;;;;;12.39;66.27;97157.92;107680;1271;59680;-74
2022/11/04 08:39:03;;;;;;;;;;;;;;;12.42;66.02;97156.90;107661;1267;72032;-75
2022/11/04 08:41:40;;;;;;;;;;;;;;;12.53;65.49;97151.83;108645;1271;69056;-74
2022/11/04 08:44:09;;;;;;;;;;;;;;;12.55;65.88;97148.33;108723;1270;69266;-74
2022/11/04 08:46:39;;;;;;;;;;;;;;;12.61;65.44;97144.67;107863;1271;59741;-75
2022/11/04 08:49:08;;;;;;;;;;;;;;;12.79;64.88;97140.30;107645;1270;60131;-73
2022/11/04 08:51:43;;;;;;;;;;;;;;;12.89;64.44;97134.04;107670;1269;71350;-73
2022/11/04 08:54:12;;;;;;;;;;;;;;;13.28;64.37;97136.41;107642;1271;69735;-73
2022/11/04 08:56:40;;;;;;;;;;;;;;;13.57;63.68;97135.09;107669;1270;69294;-73
2022/11/04 08:59:10;;;;;;;;;;;;;;;13.63;63.65;97134.37;107618;1270;59785;-75
2022/11/04 09:01:38;;;;;;;;;;;;;;;13.71;63.20;97128.09;107631;1269;59713;-74
2022/11/04 09:04:09;;;;;;;;;;;;;;;13.75;62.95;97130.29;107627;1267;71489;-73
2022/11/04 09:06:41;;;;;;;;;;;;;;;13.47;62.73;97127.73;107677;1265;69311;-73
2022/11/04 09:09:11;;;;;;;;;;;;;;;13.67;62.91;97122.48;107646;1269;68468;-74
2022/11/04 09:11:41;;;;;;;;;;;;;;;13.63;62.80;97118.61;107649;1269;59686;-73
2022/11/04 09:14:11;;;;;;;;;;;;;;;13.50;62.66;97111.53;107657;1265;59732;-74
2022/11/04 09:16:40;;;;;;;;;;;;;;;13.55;62.83;97105.36;107660;1270;71214;-74
2022/11/04 09:19:08;;;;;;;;;;;;;;;13.59;62.37;97098.98;107666;1270;69192;-74
2022/11/04 09:21:37;;;;;;;;;;;;;;;13.71;63.00;97093.02;107669;1271;68495;-74
2022/11/04 09:24:06;;;;;;;;;;;;;;;13.79;62.20;97091.83;107651;1271;59760;-74
2022/11/04 09:26:35;;;;;;;;;;;;;;;13.72;62.43;97086.13;107680;1270;59745;-73
2022/11/04 09:29:05;;;;;;;;;;;;;;;13.77;62.46;97086.68;107650;1270;70585;-74
2022/11/04 09:31:34;;;;;;;;;;;;;;;13.70;62.88;97082.92;107683;1270;69174;-74
2022/11/04 09:34:02;;;;;;;;;;;;;;;13.72;62.56;97082.95;107642;1270;68448;-74
2022/11/04 09:36:31;;;;;;;;;;;;;;;13.58;62.65;97078.09;107645;1269;59825;-74
2022/11/04 09:39:00;;;;;;;;;;;;;;;13.68;62.38;97078.61;107671;1270;59670;-74
2022/11/04 09:41:28;;;;;;;;;;;;;;;13.83;61.99;97068.13;107686;1267;70648;-74
2022/11/04 09:44:20;;;;;;;;;;;;;;;13.97;61.89;97059.27;107629;1270;69234;-73
2022/11/04 09:46:51;;;;;;;;;;;;;;;14.00;61.92;97054.80;107632;1270;69283;-74
2022/11/04 09:49:20;;;;;;;;;;;;;;;14.18;61.98;97049.66;107653;1270;59834;-74
2022/11/04 09:51:49;;;;;;;;;;;;;;;14.42;61.44;97051.95;107674;1270;59684;-74
2022/11/04 09:54:25;;;;;;;;;;;;;;;14.43;60.84;97047.84;107625;1270;71381;-74
2022/11/04 09:56:56;;;;;;;;;;;;;;;14.43;61.09;97049.61;107648;1269;69590;-74
2022/11/04 09:59:27;;;;;;;;;;;;;;;14.31;60.97;97048.77;107611;1271;68929;-74
2022/11/04 10:02:15;;;;;;;;;;;;;;;14.18;60.82;97050.12;107655;1267;59732;-74
2022/11/04 10:05:16;;;;;;;;;;;;;;;13.98;61.30;97051.48;107628;1271;59675;-74
2022/11/04 10:07:47;;;;;;;;;;;;;;;13.71;62.35;97055.73;107550;1267;71355;-74
2022/11/04 10:10:21;;;;;;;;;;;;;;;13.79;62.41;97048.54;107518;1268;69704;-74
2022/11/04 10:13:00;;;;;;;;;;;;;;;13.81;62.61;97047.48;107645;1271;69131;-74
2022/11/04 10:15:55;;;;;;;;;;;;;;;13.97;62.27;97038.09;107656;1271;59786;-74
2022/11/04 10:18:24;;;;;;;;;;;;;;;13.92;61.84;97033.84;107555;1272;59706;-74
2022/11/04 10:20:55;;;;;;;;;;;;;;;14.00;61.36;97030.86;107640;1269;71410;-74
2022/11/04 10:23:37;;;;;;;;;;;;;;;14.05;60.65;97028.77;107624;1271;69554;-75
2022/11/04 10:26:14;;;;;;;;;;;;;;;14.17;61.11;97020.30;107635;1269;68467;-75
2022/11/04 10:28:47;;;;;;;;;;;;;;;14.20;60.56;97018.38;107670;1270;59706;-74
2022/11/04 10:31:17;;;;;;;;;;;;;;;14.23;60.64;97013.59;107681;1271;59808;-75
2022/11/04 10:33:49;;;;;;;;;;;;;;;14.27;60.62;97012.99;107516;1270;70230;-76
2022/11/04 10:36:17;;;;;;;;;;;;;;;14.24;59.94;97005.09;107612;1270;68406;-76
2022/11/04 10:38:50;;;;;;;;;;;;;;;14.16;60.21;97004.40;107644;1266;68496;-76
2022/11/04 10:41:19;;;;;;;;;;;;;;;14.14;60.37;97002.50;107609;1270;59818;-75
2022/11/04 10:43:49;;;;;;;;;;;;;;;14.08;60.10;96999.77;107650;1270;59719;-75
2022/11/04 10:46:21;;;;;;;;;;;;;;;13.83;60.51;97000.52;107667;1270;71996;-74
2022/11/04 10:49:11;;;;;;;;;;;;;;;13.63;61.43;96995.67;107560;1270;69268;-74
2022/11/04 10:51:40;;;;;;;;;;;;;;;13.76;60.99;96994.45;107372;1271;69888;-74
2022/11/04 10:54:09;;;;;;;;;;;;;;;13.88;60.92;96989.88;107628;1266;59783;-72
2022/11/04 10:56:44;;;;;;;;;;;;;;;13.80;60.85;96987.98;107659;1269;59728;-73
2022/11/04 10:59:23;;;;;;;;;;;;;;;14.03;60.93;96982.02;107670;1270;71246;-73
2022/11/04 11:01:53;;;;;;;;;;;;;;;14.25;61.31;96978.88;107641;1267;68278;-74
2022/11/04 11:04:35;;;;;;;;;;;;;;;14.66;61.30;96980.91;107591;1270;68506;-73
2022/11/04 11:07:06;;;;;;;;;;;;;;;15.26;60.48;96977.93;107634;1270;59768;-73
2022/11/04 11:09:36;;;;;;;;;;;;;;;15.73;59.52;96975.20;107619;1271;59796;-73
2022/11/04 11:12:17;;;;;;;;;;;;;;;16.05;58.91;96968.13;107628;1271;71988;-73
2022/11/04 11:15:26;;;;;;;;;;;;;;;16.32;58.63;96966.77;107621;1270;69193;-74
2022/11/04 11:18:11;;;;;;;;;;;;;;;16.50;58.94;96958.57;107537;1271;68184;-74
2022/11/04 11:20:40;;;;;;;;;;;;;;;16.61;56.64;96952.35;107559;1274;59764;-75
2022/11/04 11:23:27;;;;;;;;;;;;;;;16.99;56.90;96951.63;107632;1267;59693;-75
2022/11/04 11:25:56;;;;;;;;;;;;;;;17.67;57.00;96951.41;107661;1270;71329;-74
2022/11/04 11:28:25;;;;;;;;;;;;;;;18.03;53.24;96942.83;107601;1271;69599;-74
2022/11/04 11:30:56;;;;;;;;;;;;;;;18.27;52.86;96940.40;107780;1271;69189;-74
2022/11/04 11:33:29;;;;;;;;;;;;;;;18.41;52.47;96938.59;107638;1270;59743;-74
2022/11/04 11:35:59;;;;;;;;;;;;;;;18.47;50.74;96930.97;107783;1265;59716;-74
2022/11/04 11:38:29;;;;;;;;;;;;;;;18.95;49.41;96931.61;107730;1270;70408;-74
2022/11/04 11:41:04;;;;;;;;;;;;;;;19.60;48.43;96933.84;107790;1269;69128;-75
2022/11/04 11:43:52;;;;;;;;;;;;;;;20.51;46.49;96927.44;107763;1270;69329;-74
2022/11/04 11:46:26;;;;;;;;;;;;;;;20.94;47.10;96924.12;107653;1267;59695;-74
2022/11/04 11:49:00;;;;;;;;;;;;;;;20.66;43.19;96918.34;107663;1270;59745;-74
2022/11/04 11:51:38;;;;;;;;;;;;;;;20.82;44.03;96919.11;107778;1270;70504;-75
2022/11/04 11:54:14;;;;;;;;;;;;;;;21.39;42.80;96912.02;107755;1270;69685;-74
2022/11/04 11:56:45;;;;;;;;;;;;;;;21.94;43.35;96903.39;107512;1271;69141;-74
2022/11/04 12:00:14;;;;;;;;;;;;;;;22.59;40.08;96901.06;107598;1270;59735;-74
2022/11/04 12:03:02;;;;;;;;;;;;;;;23.56;43.59;96901.23;107448;1275;59670;-74
2022/11/04 12:05:38;;;;;;;;;;;;;;;24.00;41.02;96891.52;107339;1273;70463;-74
2022/11/04 12:08:45;;;;;;;;;;;;;;;23.72;37.19;96887.54;107588;1271;70770;-74
2022/11/04 12:11:53;;;;;;;;;;;;;;;24.00;39.10;96882.60;107429;1272;69606;-74
2022/11/04 12:14:30;;;;;;;;;;;;;;;23.69;36.49;96876.45;107598;1270;59760;-73
2022/11/04 12:17:20;;;;;;;;;;;;;;;23.70;36.89;96868.89;107742;1270;59691;-74
2022/11/04 12:20:04;;;;;;;;;;;;;;;23.76;36.93;96864.02;107647;1270;70657;-75
2022/11/04 12:22:43;;;;;;;;;;;;;;;23.64;37.20;96857.64;107608;1270;69073;-74
2022/11/04 12:25:14;;;;;;;;;;;;;;;23.78;36.93;96851.96;107585;1270;68570;-76
2022/11/04 12:27:51;;;;;;;;;;;;;;;24.15;37.01;96843.45;107642;1268;59796;-75
2022/11/04 12:30:21;;;;;;;;;;;;;;;23.80;35.68;96842.69;107468;1267;59748;-76
2022/11/04 12:33:25;;;;;;;;;;;;;;;24.18;35.64;96835.44;107463;1271;70706;-76
2022/11/04 12:36:03;;;;;;;;;;;;;;;24.59;36.55;96835.29;107634;1270;69161;-76
2022/11/04 12:38:46;;;;;;;;;;;;;;;24.89;34.48;96829.87;107781;1269;68480;-74
2022/11/04 12:41:32;;;;;;;;;;;;;;;24.89;34.16;96824.73;107742;1270;59773;-75
2022/11/04 12:44:30;;;;;;;;;;;;;;;24.84;34.30;96822.88;107606;1270;59694;-76
2022/11/04 12:47:11;;;;;;;;;;;;;;;25.69;36.18;96821.61;107784;1272;70582;-75
2022/11/04 12:49:51;;;;;;;;;;;;;;;26.23;34.87;96816.63;107761;1269;69201;-75
2022/11/04 12:52:37;;;;;;;;;;;;;;;26.36;33.61;96818.75;107578;1269;69097;-74
2022/11/04 12:55:16;;;;;;;;;;;;;;;26.23;32.60;96817.55;107646;1269;59770;-75
2022/11/04 12:57:47;;;;;;;;;;;;;;;26.38;32.93;96818.77;107634;1270;59768;-76
2022/11/04 13:00:19;;;;;;;;;;;;;;;25.84;31.89;96820.95;107633;1271;71348;-72
2022/11/04 13:02:50;;;;;;;;;;;;;;;25.82;32.96;96814.85;107629;1271;69024;-75
2022/11/04 13:05:19;;;;;;;;;;;;;;;26.19;31.13;96815.58;107535;1271;69264;-76
2022/11/04 13:07:56;;;;;;;;;;;;;;;26.33;31.02;96811.78;107602;1271;59738;-75
2022/11/04 13:10:30;;;;;;;;;;;;;;;26.86;32.19;96810.41;107712;1270;59706;-75
2022/11/04 13:13:00;;;;;;;;;;;;;;;26.83;29.69;96802.76;107592;1271;71283;-76
2022/11/04 13:15:33;;;;;;;;;;;;;;;27.00;30.27;96804.06;107576;1265;69703;-75
2022/11/04 13:18:04;;;;;;;;;;;;;;;27.11;29.64;96811.08;107533;1271;69231;-75
2022/11/04 13:20:39;;;;;;;;;;;;;;;27.35;29.29;96811.36;107678;1266;59720;-76
2022/11/04 13:23:13;;;;;;;;;;;;;;;27.38;29.06;96808.82;107706;1270;59727;-76
2022/11/04 13:25:44;;;;;;;;;;;;;;;27.47;28.94;96800.89;107656;1265;72010;-75
2022/11/04 13:28:14;;;;;;;;;;;;;;;27.03;29.09;96799.52;107667;1269;69491;-74
2022/11/04 13:30:52;;;;;;;;;;;;;;;26.47;28.84;96798.58;107629;1271;69862;-76
2022/11/04 13:33:20;;;;;;;;;;;;;;;25.98;29.68;96794.45;107631;1270;59793;-75
2022/11/04 13:36:22;;;;;;;;;;;;;;;24.72;30.47;96799.27;107640;1270;59638;-75
2022/11/04 13:38:54;;;;;;;;;;;;;;;24.07;32.02;96798.17;107483;1270;71406;-75
2022/11/04 13:41:25;;;;;;;;;;;;;;;23.81;32.42;96787.18;107620;1270;68652;-75